createdAt,value
2022-08-29T00:03:24.257Z,86.78
2022-08-29T00:08:25.862Z,87.20
2022-08-29T00:13:27.728Z,87.30
2022-08-29T00:18:29.404Z,87.23
2022-08-29T00:23:31.040Z,87.16
2022-08-29T00:28:32.702Z,86.39
2022-08-29T00:33:34.280Z,87.87
2022-08-29T00:38:36.916Z,87.10
2022-08-29T00:43:38.474Z,85.62
2022-08-29T00:48:41.401Z,84.61
2022-08-29T00:53:45.209Z,82.07
2022-08-29T00:58:59.457Z,81.51
2022-08-29T01:04:01.072Z,80.81
2022-08-29T01:09:03.373Z,80.80
2022-08-29T01:14:05.187Z,80.76
2022-08-29T01:19:16.143Z,80.45
2022-08-29T01:24:23.551Z,80.33
2022-08-29T01:29:25.144Z,80.02
2022-08-29T01:34:29.201Z,80.30
2022-08-29T01:39:34.224Z,80.14
2022-08-29T01:44:37.121Z,80.31
2022-08-29T01:49:40.846Z,81.10
2022-08-29T01:54:46.056Z,80.91
2022-08-29T01:59:47.770Z,80.64
2022-08-29T02:04:49.966Z,81.33
2022-08-29T02:09:52.286Z,81.41
2022-08-29T02:14:53.962Z,81.95
2022-08-29T02:19:55.500Z,82.08
2022-08-29T02:24:57.102Z,82.87
2022-08-29T02:29:59.448Z,81.54
2022-08-29T02:35:01.445Z,82.91
2022-08-29T02:40:06.812Z,82.11
2022-08-29T02:45:08.851Z,83.46
2022-08-29T02:50:13.700Z,83.54
2022-08-29T02:55:16.942Z,83.34
2022-08-29T03:00:23.260Z,83.43
2022-08-29T03:05:27.854Z,83.13
2022-08-29T03:10:29.663Z,83.05
2022-08-29T03:15:31.451Z,83.26
2022-08-29T03:20:35.138Z,83.20
2022-08-29T03:25:36.813Z,83.17
2022-08-29T03:30:38.497Z,81.63
2022-08-29T03:35:40.172Z,80.60
2022-08-29T03:40:42.366Z,80.61
2022-08-29T03:45:44.435Z,81.40
2022-08-29T03:50:46.066Z,81.04
2022-08-29T03:55:47.798Z,81.10
2022-08-29T04:00:49.379Z,81.42
2022-08-29T04:05:51.076Z,82.10
2022-08-29T04:10:56.987Z,83.00
2022-08-29T04:15:58.598Z,82.98
2022-08-29T04:21:03.048Z,84.22
2022-08-29T04:26:27.155Z,84.23
2022-08-29T04:31:26.465Z,84.00
2022-08-29T04:36:28.749Z,84.53
2022-08-29T04:41:32.961Z,84.13
2022-08-29T04:46:35.142Z,83.31
2022-08-29T04:51:36.818Z,83.48
2022-08-29T04:56:39.284Z,83.68
2022-08-29T05:01:47.106Z,83.06
2022-08-29T05:06:48.703Z,82.93
2022-08-29T05:11:50.343Z,82.17
2022-08-29T05:16:52.140Z,81.80
2022-08-29T05:21:57.904Z,81.03
2022-08-29T05:26:59.966Z,79.44
2022-08-29T05:32:02.428Z,77.40
2022-08-29T05:37:06.786Z,76.81
2022-08-29T05:42:09.713Z,74.47
2022-08-29T05:47:13.577Z,73.74
2022-08-29T05:52:16.617Z,71.95
2022-08-29T05:57:21.054Z,70.51
2022-08-29T06:02:23.128Z,69.16
2022-08-29T06:07:24.844Z,69.22
2022-08-29T06:12:26.376Z,67.61
2022-08-29T06:17:28.094Z,67.12
2022-08-29T06:22:29.740Z,66.29
2022-08-29T06:27:31.531Z,65.10
2022-08-29T06:32:33.349Z,65.17
2022-08-29T06:37:34.918Z,64.27
2022-08-29T06:42:36.475Z,63.38
2022-08-29T06:47:41.059Z,63.71
2022-08-29T06:52:43.109Z,62.85
2022-08-29T06:57:48.628Z,62.69
2022-08-29T07:02:52.852Z,63.02
2022-08-29T07:07:54.674Z,62.81
2022-08-29T07:12:56.367Z,62.53
2022-08-29T07:18:10.148Z,62.58
2022-08-29T07:23:12.119Z,62.53
2022-08-29T07:28:13.842Z,61.57
2022-08-29T07:33:17.287Z,62.06
2022-08-29T07:38:18.871Z,62.44
2022-08-29T07:43:22.991Z,61.76
2022-08-29T07:48:26.772Z,62.10
2022-08-29T07:53:28.417Z,62.48
2022-08-29T07:58:31.443Z,62.58
2022-08-29T08:03:33.945Z,62.91
2022-08-29T08:08:35.660Z,63.04
2022-08-29T08:13:37.844Z,61.69
2022-08-29T08:18:40.303Z,63.24
2022-08-29T08:23:42.143Z,63.74
2022-08-29T08:28:44.125Z,63.20
2022-08-29T08:33:46.252Z,63.25
2022-08-29T08:38:48.949Z,62.68
2022-08-29T08:43:54.392Z,63.24
2022-08-29T08:48:57.576Z,61.94
2022-08-29T08:53:59.423Z,62.34
2022-08-29T08:59:05.250Z,62.38
2022-08-29T09:04:16.698Z,62.64
2022-08-29T09:09:36.485Z,61.62
2022-08-29T09:14:58.360Z,61.97
2022-08-29T09:20:01.558Z,61.10
2022-08-29T09:25:06.889Z,60.28
2022-08-29T09:30:13.939Z,61.15
2022-08-29T09:35:24.451Z,60.80
2022-08-29T09:40:41.548Z,59.18
2022-08-29T09:46:02.447Z,59.57
2022-08-29T09:51:14.758Z,60.32
2022-08-29T09:56:20.570Z,58.87
2022-08-29T10:01:28.127Z,58.78
2022-08-29T10:06:33.777Z,58.88
2022-08-29T10:11:42.177Z,60.23
2022-08-29T10:16:50.299Z,59.70
2022-08-29T10:21:57.843Z,59.26
2022-08-29T10:27:02.869Z,59.99
2022-08-29T10:32:13.472Z,58.34
2022-08-29T10:37:35.207Z,58.08
2022-08-29T10:42:39.953Z,59.91
2022-08-29T10:47:52.895Z,59.02
2022-08-29T10:52:54.503Z,59.18
2022-08-29T10:58:05.358Z,58.92
2022-08-29T11:04:06.063Z,58.79
2022-08-29T11:09:18.859Z,57.97
2022-08-29T11:14:36.543Z,58.19
2022-08-29T11:19:52.439Z,58.24
2022-08-29T11:25:09.926Z,57.66
2022-08-29T11:30:21.296Z,57.75
2022-08-29T11:35:41.556Z,56.69
2022-08-29T11:46:42.313Z,55.86
2022-08-29T11:51:43.971Z,55.46
2022-08-29T11:56:46.223Z,55.61
2022-08-29T12:01:47.760Z,56.81
2022-08-29T12:07:01.292Z,56.70
2022-08-29T12:12:05.754Z,56.13
2022-08-29T12:17:10.722Z,55.91
2022-08-29T12:22:51.153Z,55.76
2022-08-29T12:28:20.915Z,55.15
2022-08-29T12:33:41.225Z,55.98
2022-08-29T12:39:04.847Z,54.94
2022-08-29T12:44:10.726Z,55.09
2022-08-29T12:49:26.765Z,55.21
2022-08-29T12:54:37.805Z,54.66
2022-08-29T12:59:44.407Z,55.03
2022-08-29T13:04:46.100Z,54.76
2022-08-29T13:09:57.194Z,54.81
2022-08-29T13:15:01.614Z,55.45
2022-08-29T13:20:40.807Z,54.64
2022-08-29T13:26:05.637Z,55.33
2022-08-29T13:31:16.026Z,55.57
2022-08-29T13:36:47.046Z,54.52
2022-08-29T13:42:01.851Z,54.61
2022-08-29T13:47:16.076Z,54.64
2022-08-29T13:52:18.627Z,54.58
2022-08-29T13:57:25.045Z,54.22
2022-08-29T14:02:27.167Z,54.22
2022-08-29T14:07:31.054Z,53.37
2022-08-29T14:12:33.643Z,53.62
2022-08-29T14:17:35.823Z,54.06
2022-08-29T14:22:37.619Z,54.72
2022-08-29T14:27:39.226Z,55.93
2022-08-29T14:32:41.503Z,55.50
2022-08-29T14:37:43.286Z,54.96
2022-08-29T14:42:45.216Z,55.67
2022-08-29T14:47:47.256Z,55.83
2022-08-29T14:52:50.210Z,55.59
2022-08-29T14:57:51.883Z,55.88
2022-08-29T15:02:54.207Z,56.40
2022-08-29T15:07:56.382Z,55.81
2022-08-29T15:12:58.021Z,56.71
2022-08-29T15:18:01.754Z,57.01
2022-08-29T15:23:03.599Z,56.72
2022-08-29T15:28:05.842Z,56.38
2022-08-29T15:33:07.432Z,56.65
2022-08-29T15:38:09.326Z,57.28
2022-08-29T15:43:11.215Z,56.37
2022-08-29T15:48:12.859Z,55.99
2022-08-29T15:53:15.892Z,56.64
2022-08-29T15:58:17.490Z,56.14
2022-08-29T16:03:19.136Z,56.83
2022-08-29T16:08:20.713Z,56.03
2022-08-29T16:13:29.386Z,56.09
2022-08-29T16:18:30.931Z,56.39
2022-08-29T16:23:33.066Z,55.94
2022-08-29T16:28:35.009Z,56.20
2022-08-29T16:33:36.602Z,57.49
2022-08-29T16:38:39.573Z,57.16
2022-08-29T16:43:41.935Z,56.88
2022-08-29T16:48:43.720Z,56.75
2022-08-29T16:53:45.296Z,57.18
2022-08-29T16:59:01.736Z,57.93
2022-08-29T17:04:06.159Z,58.74
2022-08-29T17:09:09.035Z,59.18
2022-08-29T17:14:11.958Z,59.59
2022-08-29T17:19:15.067Z,59.14
2022-08-29T17:24:16.694Z,59.57
2022-08-29T17:29:18.352Z,60.02
2022-08-29T17:34:20.147Z,60.28
2022-08-29T17:39:21.733Z,60.77
2022-08-29T17:44:24.586Z,61.14
2022-08-29T17:49:27.043Z,60.91
2022-08-29T17:54:29.513Z,61.78
2022-08-29T17:59:33.746Z,62.01
2022-08-29T18:04:35.704Z,62.40
2022-08-29T18:09:37.303Z,62.42
2022-08-29T18:14:38.991Z,62.70
2022-08-29T18:19:41.131Z,62.67
2022-08-29T18:24:42.756Z,63.52
2022-08-29T18:29:45.389Z,63.80
2022-08-29T18:34:47.699Z,64.66
2022-08-29T18:39:49.306Z,65.57
2022-08-29T18:44:50.970Z,65.22
2022-08-29T18:50:11.167Z,65.71
2022-08-29T18:55:15.771Z,68.10
2022-08-29T19:00:18.245Z,67.01
2022-08-29T19:05:20.742Z,67.28
2022-08-29T19:10:22.639Z,67.05
2022-08-29T19:15:26.282Z,67.98
2022-08-29T19:20:46.753Z,68.14
2022-08-29T19:25:48.493Z,70.12
2022-08-29T19:30:50.220Z,71.10
2022-08-29T19:35:53.646Z,73.52
2022-08-29T19:40:58.305Z,73.17
2022-08-29T19:46:01.438Z,73.37
2022-08-29T19:51:08.886Z,74.13
2022-08-29T19:56:12.725Z,76.07
2022-08-29T20:01:14.485Z,76.18
2022-08-29T20:06:17.167Z,75.77
2022-08-29T20:11:24.150Z,75.76
2022-08-29T20:16:30.230Z,76.96
2022-08-29T20:21:33.643Z,76.76
2022-08-29T20:26:36.401Z,73.84
2022-08-29T20:31:38.770Z,74.24
2022-08-29T20:36:59.331Z,77.19
2022-08-29T20:42:02.134Z,77.25
2022-08-29T20:47:05.893Z,79.47
2022-08-29T20:52:07.614Z,80.49
2022-08-29T20:57:10.234Z,79.40
2022-08-29T21:02:16.584Z,77.09
2022-08-29T21:07:18.226Z,80.01
2022-08-29T21:12:20.770Z,78.21
2022-08-29T21:17:22.623Z,77.53
2022-08-29T21:22:25.172Z,80.03
2022-08-29T21:27:27.070Z,80.65
2022-08-29T21:32:28.640Z,81.38
2022-08-29T21:37:30.240Z,80.99
2022-08-29T21:42:32.075Z,81.55
2022-08-29T21:47:33.632Z,82.43
2022-08-29T21:52:35.385Z,81.97
2022-08-29T21:57:52.022Z,83.06
2022-08-29T22:02:54.574Z,84.07
2022-08-29T22:07:56.813Z,83.06
2022-08-29T22:12:59.941Z,83.48
2022-08-29T22:18:01.693Z,85.29
2022-08-29T22:23:04.425Z,84.56
2022-08-29T22:28:06.276Z,84.65
2022-08-29T22:33:08.183Z,85.48
2022-08-29T22:38:09.835Z,84.57
2022-08-29T22:43:12.222Z,84.24
2022-08-29T22:48:19.136Z,84.27
2022-08-29T22:53:20.694Z,84.01
2022-08-29T22:58:25.675Z,83.49
2022-08-29T23:03:27.438Z,85.47
2022-08-29T23:08:29.181Z,84.34
2022-08-29T23:13:31.459Z,84.61
2022-08-29T23:18:33.195Z,84.25
2022-08-29T23:23:35.351Z,84.97
2022-08-29T23:28:37.035Z,85.55
2022-08-29T23:33:38.613Z,85.71
2022-08-29T23:38:40.550Z,85.08
2022-08-29T23:43:42.727Z,85.10
2022-08-29T23:48:44.966Z,86.46
2022-08-29T23:53:47.442Z,84.96
2022-08-29T23:58:49.098Z,84.13
